sensor_id;sensor_type;location;lat;lon;timestamp;temperature;humidity
52787;DHT22;38661;53.152;5.846;2023-10-08T00:00:26;14.50;92.90
52787;DHT22;38661;53.152;5.846;2023-10-08T00:03:11;14.50;93.00
52787;DHT22;38661;53.152;5.846;2023-10-08T00:05:37;14.50;93.10
52787;DHT22;38661;53.152;5.846;2023-10-08T00:08:04;14.50;93.20
52787;DHT22;38661;53.152;5.846;2023-10-08T00:10:37;14.50;93.30
52787;DHT22;38661;53.152;5.846;2023-10-08T00:13:07;14.50;93.20
52787;DHT22;38661;53.152;5.846;2023-10-08T00:15:36;14.50;93.10
52787;DHT22;38661;53.152;5.846;2023-10-08T00:18:05;14.50;93.10
52787;DHT22;38661;53.152;5.846;2023-10-08T00:20:37;14.50;93.10
52787;DHT22;38661;53.152;5.846;2023-10-08T00:23:12;14.50;93.20
52787;DHT22;38661;53.152;5.846;2023-10-08T00:25:40;14.50;93.30
52787;DHT22;38661;53.152;5.846;2023-10-08T00:28:09;14.50;93.30
52787;DHT22;38661;53.152;5.846;2023-10-08T00:30:40;14.30;93.30
52787;DHT22;38661;53.152;5.846;2023-10-08T00:33:08;14.30;93.30
52787;DHT22;38661;53.152;5.846;2023-10-08T00:35:53;14.30;93.40
52787;DHT22;38661;53.152;5.846;2023-10-08T00:38:51;14.30;93.40
52787;DHT22;38661;53.152;5.846;2023-10-08T00:41:19;14.20;93.20
52787;DHT22;38661;53.152;5.846;2023-10-08T00:43:48;14.20;93.20
52787;DHT22;38661;53.152;5.846;2023-10-08T00:46:16;14.10;93.20
52787;DHT22;38661;53.152;5.846;2023-10-08T00:49:05;14.20;93.20
52787;DHT22;38661;53.152;5.846;2023-10-08T00:51:59;14.10;93.20
52787;DHT22;38661;53.152;5.846;2023-10-08T00:54:38;14.10;93.30
52787;DHT22;38661;53.152;5.846;2023-10-08T00:57:26;14.10;93.30
52787;DHT22;38661;53.152;5.846;2023-10-08T00:59:52;14.10;93.30
52787;DHT22;38661;53.152;5.846;2023-10-08T01:02:24;14.20;93.30
52787;DHT22;38661;53.152;5.846;2023-10-08T01:04:52;14.10;93.20
52787;DHT22;38661;53.152;5.846;2023-10-08T01:07:20;14.00;93.30
52787;DHT22;38661;53.152;5.846;2023-10-08T01:09:47;14.10;93.30
52787;DHT22;38661;53.152;5.846;2023-10-08T01:12:17;14.10;93.30
52787;DHT22;38661;53.152;5.846;2023-10-08T01:15:02;14.10;93.30
52787;DHT22;38661;53.152;5.846;2023-10-08T01:17:47;14.10;93.30
52787;DHT22;38661;53.152;5.846;2023-10-08T01:20:39;14.10;93.30
52787;DHT22;38661;53.152;5.846;2023-10-08T01:23:17;14.00;93.20
52787;DHT22;38661;53.152;5.846;2023-10-08T01:25:47;14.10;93.20
52787;DHT22;38661;53.152;5.846;2023-10-08T01:28:27;14.00;93.30
52787;DHT22;38661;53.152;5.846;2023-10-08T01:30:55;14.00;93.20
52787;DHT22;38661;53.152;5.846;2023-10-08T01:33:23;14.10;93.20
52787;DHT22;38661;53.152;5.846;2023-10-08T01:35:54;14.00;93.30
52787;DHT22;38661;53.152;5.846;2023-10-08T01:38:20;14.00;93.20
52787;DHT22;38661;53.152;5.846;2023-10-08T01:40:51;14.00;93.30
52787;DHT22;38661;53.152;5.846;2023-10-08T01:43:18;14.00;93.20
52787;DHT22;38661;53.152;5.846;2023-10-08T01:45:44;14.00;93.20
52787;DHT22;38661;53.152;5.846;2023-10-08T01:48:14;14.00;93.30
52787;DHT22;38661;53.152;5.846;2023-10-08T01:50:57;14.00;93.20
52787;DHT22;38661;53.152;5.846;2023-10-08T01:53:27;14.00;93.20
52787;DHT22;38661;53.152;5.846;2023-10-08T01:55:53;14.00;93.20
52787;DHT22;38661;53.152;5.846;2023-10-08T01:58:21;14.00;93.30
52787;DHT22;38661;53.152;5.846;2023-10-08T02:00:48;14.00;93.30
52787;DHT22;38661;53.152;5.846;2023-10-08T02:03:16;14.00;93.30
52787;DHT22;38661;53.152;5.846;2023-10-08T02:05:46;14.00;93.30
52787;DHT22;38661;53.152;5.846;2023-10-08T02:08:13;14.00;93.30
52787;DHT22;38661;53.152;5.846;2023-10-08T02:10:41;13.90;93.30
52787;DHT22;38661;53.152;5.846;2023-10-08T02:13:08;14.00;93.30
52787;DHT22;38661;53.152;5.846;2023-10-08T02:15:36;14.00;93.40
52787;DHT22;38661;53.152;5.846;2023-10-08T02:18:03;14.00;93.40
52787;DHT22;38661;53.152;5.846;2023-10-08T02:20:30;14.00;93.40
52787;DHT22;38661;53.152;5.846;2023-10-08T02:22:56;14.00;93.50
52787;DHT22;38661;53.152;5.846;2023-10-08T02:25:21;14.00;93.50
52787;DHT22;38661;53.152;5.846;2023-10-08T02:27:48;13.90;93.50
52787;DHT22;38661;53.152;5.846;2023-10-08T02:30:14;13.90;93.50
52787;DHT22;38661;53.152;5.846;2023-10-08T02:32:40;13.90;93.40
52787;DHT22;38661;53.152;5.846;2023-10-08T02:35:11;13.90;93.40
52787;DHT22;38661;53.152;5.846;2023-10-08T02:37:37;14.00;93.40
52787;DHT22;38661;53.152;5.846;2023-10-08T02:40:09;13.90;93.40
52787;DHT22;38661;53.152;5.846;2023-10-08T02:42:56;13.90;93.50
52787;DHT22;38661;53.152;5.846;2023-10-08T02:45:42;14.00;93.50
52787;DHT22;38661;53.152;5.846;2023-10-08T02:52:55;14.00;93.60
52787;DHT22;38661;53.152;5.846;2023-10-08T02:55:28;13.90;93.50
52787;DHT22;38661;53.152;5.846;2023-10-08T02:58:02;13.90;93.50
52787;DHT22;38661;53.152;5.846;2023-10-08T03:00:29;13.90;93.40
52787;DHT22;38661;53.152;5.846;2023-10-08T03:02:58;13.90;93.50
52787;DHT22;38661;53.152;5.846;2023-10-08T03:05:26;13.90;93.50
52787;DHT22;38661;53.152;5.846;2023-10-08T03:07:56;13.90;93.50
52787;DHT22;38661;53.152;5.846;2023-10-08T03:10:24;14.00;93.60
52787;DHT22;38661;53.152;5.846;2023-10-08T03:12:57;14.00;93.60
52787;DHT22;38661;53.152;5.846;2023-10-08T03:15:29;13.90;93.50
52787;DHT22;38661;53.152;5.846;2023-10-08T03:18:00;14.00;93.60
52787;DHT22;38661;53.152;5.846;2023-10-08T03:20:35;14.00;93.60
52787;DHT22;38661;53.152;5.846;2023-10-08T03:23:04;14.00;93.50
52787;DHT22;38661;53.152;5.846;2023-10-08T03:25:37;14.00;93.50
52787;DHT22;38661;53.152;5.846;2023-10-08T03:28:08;14.00;93.50
52787;DHT22;38661;53.152;5.846;2023-10-08T03:30:34;14.00;93.40
52787;DHT22;38661;53.152;5.846;2023-10-08T03:33:13;14.00;93.40
52787;DHT22;38661;53.152;5.846;2023-10-08T03:35:47;14.00;93.40
52787;DHT22;38661;53.152;5.846;2023-10-08T03:38:14;14.00;93.40
52787;DHT22;38661;53.152;5.846;2023-10-08T03:40:47;14.00;93.50
52787;DHT22;38661;53.152;5.846;2023-10-08T03:43:15;14.00;93.50
52787;DHT22;38661;53.152;5.846;2023-10-08T03:45:49;13.90;93.40
52787;DHT22;38661;53.152;5.846;2023-10-08T03:48:24;14.00;93.30
52787;DHT22;38661;53.152;5.846;2023-10-08T03:50:53;14.00;93.30
52787;DHT22;38661;53.152;5.846;2023-10-08T03:53:40;14.00;93.30
52787;DHT22;38661;53.152;5.846;2023-10-08T03:56:43;13.90;93.30
52787;DHT22;38661;53.152;5.846;2023-10-08T04:00:13;14.00;93.30
52787;DHT22;38661;53.152;5.846;2023-10-08T04:07:55;14.00;93.30
52787;DHT22;38661;53.152;5.846;2023-10-08T04:19:47;14.00;93.30
52787;DHT22;38661;53.152;5.846;2023-10-08T04:22:13;14.00;93.30
52787;DHT22;38661;53.152;5.846;2023-10-08T04:24:41;14.00;93.30
52787;DHT22;38661;53.152;5.846;2023-10-08T04:27:09;14.00;93.30
52787;DHT22;38661;53.152;5.846;2023-10-08T04:29:35;14.00;93.30
52787;DHT22;38661;53.152;5.846;2023-10-08T04:32:05;13.90;93.30
52787;DHT22;38661;53.152;5.846;2023-10-08T04:34:34;14.00;93.30
52787;DHT22;38661;53.152;5.846;2023-10-08T04:37:00;14.00;93.30
52787;DHT22;38661;53.152;5.846;2023-10-08T04:39:37;14.00;93.30
52787;DHT22;38661;53.152;5.846;2023-10-08T04:42:05;14.00;93.30
52787;DHT22;38661;53.152;5.846;2023-10-08T04:44:38;14.00;93.30
52787;DHT22;38661;53.152;5.846;2023-10-08T04:47:06;14.00;93.30
52787;DHT22;38661;53.152;5.846;2023-10-08T04:49:35;14.00;93.30
52787;DHT22;38661;53.152;5.846;2023-10-08T04:55:40;14.00;93.30
52787;DHT22;38661;53.152;5.846;2023-10-08T04:58:14;14.00;93.20
52787;DHT22;38661;53.152;5.846;2023-10-08T05:00:47;13.90;93.20
52787;DHT22;38661;53.152;5.846;2023-10-08T05:03:25;13.90;93.20
52787;DHT22;38661;53.152;5.846;2023-10-08T05:05:58;13.90;93.30
52787;DHT22;38661;53.152;5.846;2023-10-08T05:08:32;13.90;93.30
52787;DHT22;38661;53.152;5.846;2023-10-08T05:11:23;14.00;93.40
52787;DHT22;38661;53.152;5.846;2023-10-08T05:14:12;13.90;93.40
52787;DHT22;38661;53.152;5.846;2023-10-08T05:16:56;13.90;93.40
52787;DHT22;38661;53.152;5.846;2023-10-08T05:19:49;13.90;93.30
52787;DHT22;38661;53.152;5.846;2023-10-08T05:22:33;13.90;93.40
52787;DHT22;38661;53.152;5.846;2023-10-08T05:24:59;14.00;93.40
52787;DHT22;38661;53.152;5.846;2023-10-08T05:27:53;13.90;93.40
52787;DHT22;38661;53.152;5.846;2023-10-08T05:30:23;14.00;93.40
52787;DHT22;38661;53.152;5.846;2023-10-08T05:33:20;13.90;93.40
52787;DHT22;38661;53.152;5.846;2023-10-08T05:35:51;13.90;93.40
52787;DHT22;38661;53.152;5.846;2023-10-08T05:38:28;13.90;93.40
52787;DHT22;38661;53.152;5.846;2023-10-08T05:40:59;13.80;93.30
52787;DHT22;38661;53.152;5.846;2023-10-08T05:43:33;13.80;93.30
52787;DHT22;38661;53.152;5.846;2023-10-08T05:46:19;13.80;93.30
52787;DHT22;38661;53.152;5.846;2023-10-08T05:48:58;13.80;93.20
52787;DHT22;38661;53.152;5.846;2023-10-08T05:51:34;13.80;93.20
52787;DHT22;38661;53.152;5.846;2023-10-08T05:54:13;13.80;93.10
52787;DHT22;38661;53.152;5.846;2023-10-08T05:57:01;13.80;93.10
52787;DHT22;38661;53.152;5.846;2023-10-08T05:59:45;13.80;93.10
52787;DHT22;38661;53.152;5.846;2023-10-08T06:02:28;13.80;93.10
52787;DHT22;38661;53.152;5.846;2023-10-08T06:05:08;13.80;93.00
52787;DHT22;38661;53.152;5.846;2023-10-08T06:07:41;13.80;93.00
52787;DHT22;38661;53.152;5.846;2023-10-08T06:10:25;13.80;92.90
52787;DHT22;38661;53.152;5.846;2023-10-08T06:13:09;13.80;92.90
52787;DHT22;38661;53.152;5.846;2023-10-08T06:15:56;13.80;93.00
52787;DHT22;38661;53.152;5.846;2023-10-08T06:18:25;13.80;92.90
52787;DHT22;38661;53.152;5.846;2023-10-08T06:20:55;13.80;93.00
52787;DHT22;38661;53.152;5.846;2023-10-08T06:23:22;13.80;93.00
52787;DHT22;38661;53.152;5.846;2023-10-08T06:25:53;13.80;93.00
52787;DHT22;38661;53.152;5.846;2023-10-08T06:28:31;13.80;93.00
52787;DHT22;38661;53.152;5.846;2023-10-08T06:31:03;13.80;93.00
52787;DHT22;38661;53.152;5.846;2023-10-08T06:33:37;13.70;93.00
52787;DHT22;38661;53.152;5.846;2023-10-08T06:36:04;13.80;92.90
52787;DHT22;38661;53.152;5.846;2023-10-08T06:38:42;13.70;92.90
52787;DHT22;38661;53.152;5.846;2023-10-08T06:41:11;13.70;92.80
52787;DHT22;38661;53.152;5.846;2023-10-08T06:43:37;13.70;92.80
52787;DHT22;38661;53.152;5.846;2023-10-08T06:46:04;13.80;92.70
52787;DHT22;38661;53.152;5.846;2023-10-08T06:48:33;13.80;92.80
52787;DHT22;38661;53.152;5.846;2023-10-08T06:51:00;13.90;92.90
52787;DHT22;38661;53.152;5.846;2023-10-08T06:53:46;13.80;92.80
52787;DHT22;38661;53.152;5.846;2023-10-08T06:56:16;13.80;92.70
52787;DHT22;38661;53.152;5.846;2023-10-08T06:58:44;13.80;92.70
52787;DHT22;38661;53.152;5.846;2023-10-08T07:01:16;13.80;92.70
52787;DHT22;38661;53.152;5.846;2023-10-08T07:03:47;13.80;92.70
52787;DHT22;38661;53.152;5.846;2023-10-08T07:06:15;13.90;92.60
52787;DHT22;38661;53.152;5.846;2023-10-08T07:08:52;13.90;92.50
52787;DHT22;38661;53.152;5.846;2023-10-08T07:11:21;14.00;92.50
52787;DHT22;38661;53.152;5.846;2023-10-08T07:13:48;13.90;92.40
52787;DHT22;38661;53.152;5.846;2023-10-08T07:16:14;13.90;92.20
52787;DHT22;38661;53.152;5.846;2023-10-08T07:18:43;14.00;92.20
52787;DHT22;38661;53.152;5.846;2023-10-08T07:21:20;14.00;92.30
52787;DHT22;38661;53.152;5.846;2023-10-08T07:23:54;14.00;92.30
52787;DHT22;38661;53.152;5.846;2023-10-08T07:26:29;14.10;92.20
52787;DHT22;38661;53.152;5.846;2023-10-08T07:29:06;14.10;92.10
52787;DHT22;38661;53.152;5.846;2023-10-08T07:31:37;14.20;92.00
52787;DHT22;38661;53.152;5.846;2023-10-08T07:34:07;14.10;91.80
52787;DHT22;38661;53.152;5.846;2023-10-08T07:36:44;14.20;91.90
52787;DHT22;38661;53.152;5.846;2023-10-08T07:39:10;14.10;91.50
52787;DHT22;38661;53.152;5.846;2023-10-08T07:41:49;14.10;91.10
52787;DHT22;38661;53.152;5.846;2023-10-08T07:44:15;14.10;91.30
52787;DHT22;38661;53.152;5.846;2023-10-08T07:46:41;14.10;91.00
52787;DHT22;38661;53.152;5.846;2023-10-08T07:49:06;14.10;90.60
52787;DHT22;38661;53.152;5.846;2023-10-08T07:51:32;14.10;90.60
52787;DHT22;38661;53.152;5.846;2023-10-08T07:53:58;14.20;90.40
52787;DHT22;38661;53.152;5.846;2023-10-08T07:56:25;14.20;90.70
52787;DHT22;38661;53.152;5.846;2023-10-08T07:58:54;14.30;90.40
52787;DHT22;38661;53.152;5.846;2023-10-08T08:01:23;14.40;90.30
52787;DHT22;38661;53.152;5.846;2023-10-08T08:03:52;14.40;89.70
52787;DHT22;38661;53.152;5.846;2023-10-08T08:06:18;14.50;90.00
52787;DHT22;38661;53.152;5.846;2023-10-08T08:08:44;14.50;89.90
52787;DHT22;38661;53.152;5.846;2023-10-08T08:11:10;14.50;89.70
52787;DHT22;38661;53.152;5.846;2023-10-08T08:13:43;14.60;89.30
52787;DHT22;38661;53.152;5.846;2023-10-08T08:16:13;14.60;89.10
52787;DHT22;38661;53.152;5.846;2023-10-08T08:18:48;14.60;89.00
52787;DHT22;38661;53.152;5.846;2023-10-08T08:21:25;14.70;88.90
52787;DHT22;38661;53.152;5.846;2023-10-08T08:23:51;14.70;88.60
52787;DHT22;38661;53.152;5.846;2023-10-08T08:26:19;14.80;88.40
52787;DHT22;38661;53.152;5.846;2023-10-08T08:28:59;14.80;88.30
52787;DHT22;38661;53.152;5.846;2023-10-08T08:31:30;14.90;88.00
52787;DHT22;38661;53.152;5.846;2023-10-08T08:34:01;15.00;88.10
52787;DHT22;38661;53.152;5.846;2023-10-08T08:36:39;15.00;88.10
52787;DHT22;38661;53.152;5.846;2023-10-08T08:39:12;15.00;87.80
52787;DHT22;38661;53.152;5.846;2023-10-08T08:41:50;15.00;87.60
52787;DHT22;38661;53.152;5.846;2023-10-08T08:44:20;15.00;87.40
52787;DHT22;38661;53.152;5.846;2023-10-08T08:46:46;15.00;87.60
52787;DHT22;38661;53.152;5.846;2023-10-08T08:49:13;15.00;87.50
52787;DHT22;38661;53.152;5.846;2023-10-08T08:51:39;15.00;87.10
52787;DHT22;38661;53.152;5.846;2023-10-08T08:54:06;15.00;86.60
52787;DHT22;38661;53.152;5.846;2023-10-08T08:56:37;15.10;86.40
52787;DHT22;38661;53.152;5.846;2023-10-08T08:59:07;15.20;86.40
52787;DHT22;38661;53.152;5.846;2023-10-08T09:01:40;15.30;86.00
52787;DHT22;38661;53.152;5.846;2023-10-08T09:04:05;15.30;85.90
52787;DHT22;38661;53.152;5.846;2023-10-08T09:06:36;15.40;86.00
52787;DHT22;38661;53.152;5.846;2023-10-08T09:09:05;15.50;85.60
52787;DHT22;38661;53.152;5.846;2023-10-08T09:11:51;15.60;85.50
52787;DHT22;38661;53.152;5.846;2023-10-08T09:14:25;15.80;84.20
52787;DHT22;38661;53.152;5.846;2023-10-08T09:16:54;15.90;84.30
52787;DHT22;38661;53.152;5.846;2023-10-08T09:19:20;15.90;81.80
52787;DHT22;38661;53.152;5.846;2023-10-08T09:22:08;16.00;83.30
52787;DHT22;38661;53.152;5.846;2023-10-08T09:24:38;16.00;82.30
52787;DHT22;38661;53.152;5.846;2023-10-08T09:27:06;16.00;81.80
52787;DHT22;38661;53.152;5.846;2023-10-08T09:29:38;16.10;82.20
52787;DHT22;38661;53.152;5.846;2023-10-08T09:32:08;16.00;80.60
52787;DHT22;38661;53.152;5.846;2023-10-08T09:34:34;16.00;80.10
52787;DHT22;38661;53.152;5.846;2023-10-08T09:37:01;16.10;81.30
52787;DHT22;38661;53.152;5.846;2023-10-08T09:39:28;16.10;78.90
52787;DHT22;38661;53.152;5.846;2023-10-08T09:41:57;16.20;80.50
52787;DHT22;38661;53.152;5.846;2023-10-08T09:44:24;16.30;79.90
52787;DHT22;38661;53.152;5.846;2023-10-08T09:49:30;16.40;79.90
52787;DHT22;38661;53.152;5.846;2023-10-08T09:52:00;16.30;78.40
52787;DHT22;38661;53.152;5.846;2023-10-08T09:54:33;16.40;79.60
52787;DHT22;38661;53.152;5.846;2023-10-08T09:57:05;16.40;79.40
52787;DHT22;38661;53.152;5.846;2023-10-08T09:59:35;16.40;78.10
52787;DHT22;38661;53.152;5.846;2023-10-08T10:02:04;16.50;78.90
52787;DHT22;38661;53.152;5.846;2023-10-08T10:04:31;16.60;78.80
52787;DHT22;38661;53.152;5.846;2023-10-08T10:07:09;16.70;78.20
52787;DHT22;38661;53.152;5.846;2023-10-08T10:09:38;16.80;75.90
52787;DHT22;38661;53.152;5.846;2023-10-08T10:12:05;16.90;75.90
52787;DHT22;38661;53.152;5.846;2023-10-08T10:14:46;16.90;76.80
52787;DHT22;38661;53.152;5.846;2023-10-08T10:17:19;17.00;77.00
52787;DHT22;38661;53.152;5.846;2023-10-08T10:20:01;17.10;75.40
52787;DHT22;38661;53.152;5.846;2023-10-08T10:22:30;17.20;74.90
52787;DHT22;38661;53.152;5.846;2023-10-08T10:24:57;17.30;74.30
52787;DHT22;38661;53.152;5.846;2023-10-08T10:27:23;17.40;75.20
52787;DHT22;38661;53.152;5.846;2023-10-08T10:29:49;17.50;75.50
52787;DHT22;38661;53.152;5.846;2023-10-08T10:32:16;17.70;74.60
52787;DHT22;38661;53.152;5.846;2023-10-08T10:34:43;17.70;72.80
52787;DHT22;38661;53.152;5.846;2023-10-08T10:37:09;17.70;73.60
52787;DHT22;38661;53.152;5.846;2023-10-08T10:39:57;17.80;73.10
52787;DHT22;38661;53.152;5.846;2023-10-08T10:42:26;18.00;71.40
52787;DHT22;38661;53.152;5.846;2023-10-08T10:45:03;18.00;71.20
52787;DHT22;38661;53.152;5.846;2023-10-08T10:47:34;18.20;71.20
52787;DHT22;38661;53.152;5.846;2023-10-08T10:50:09;18.00;70.80
52787;DHT22;38661;53.152;5.846;2023-10-08T10:52:52;18.00;69.00
52787;DHT22;38661;53.152;5.846;2023-10-08T10:55:18;17.90;70.70
52787;DHT22;38661;53.152;5.846;2023-10-08T11:00:22;17.80;71.20
52787;DHT22;38661;53.152;5.846;2023-10-08T11:03:14;17.50;69.60
52787;DHT22;38661;53.152;5.846;2023-10-08T11:05:49;17.50;70.90
52787;DHT22;38661;53.152;5.846;2023-10-08T11:08:17;17.50;71.80
52787;DHT22;38661;53.152;5.846;2023-10-08T11:10:44;17.50;71.60
52787;DHT22;38661;53.152;5.846;2023-10-08T11:13:21;17.60;71.30
52787;DHT22;38661;53.152;5.846;2023-10-08T11:15:54;17.70;71.70
52787;DHT22;38661;53.152;5.846;2023-10-08T11:18:23;17.70;69.90
52787;DHT22;38661;53.152;5.846;2023-10-08T11:20:50;17.90;71.10
52787;DHT22;38661;53.152;5.846;2023-10-08T11:23:42;17.90;70.60
52787;DHT22;38661;53.152;5.846;2023-10-08T11:26:08;18.10;67.10
52787;DHT22;38661;53.152;5.846;2023-10-08T11:28:39;18.00;68.40
52787;DHT22;38661;53.152;5.846;2023-10-08T11:31:12;18.10;68.00
52787;DHT22;38661;53.152;5.846;2023-10-08T11:33:40;18.20;68.60
52787;DHT22;38661;53.152;5.846;2023-10-08T11:36:08;18.00;67.50
52787;DHT22;38661;53.152;5.846;2023-10-08T11:38:51;18.20;67.40
52787;DHT22;38661;53.152;5.846;2023-10-08T11:41:19;18.50;66.70
52787;DHT22;38661;53.152;5.846;2023-10-08T11:43:57;18.70;67.10
52787;DHT22;38661;53.152;5.846;2023-10-08T11:46:27;18.90;66.60
52787;DHT22;38661;53.152;5.846;2023-10-08T11:49:00;18.90;65.70
52787;DHT22;38661;53.152;5.846;2023-10-08T11:51:36;18.90;66.20
52787;DHT22;38661;53.152;5.846;2023-10-08T11:54:02;18.60;63.10
52787;DHT22;38661;53.152;5.846;2023-10-08T11:56:32;18.50;65.40
52787;DHT22;38661;53.152;5.846;2023-10-08T11:59:05;18.50;66.30
52787;DHT22;38661;53.152;5.846;2023-10-08T12:01:42;18.40;65.60
52787;DHT22;38661;53.152;5.846;2023-10-08T12:04:14;18.50;66.50
52787;DHT22;38661;53.152;5.846;2023-10-08T12:06:44;18.40;65.90
52787;DHT22;38661;53.152;5.846;2023-10-08T12:09:23;18.40;65.90
52787;DHT22;38661;53.152;5.846;2023-10-08T12:12:00;18.50;67.30
52787;DHT22;38661;53.152;5.846;2023-10-08T12:14:37;18.50;66.20
52787;DHT22;38661;53.152;5.846;2023-10-08T12:17:08;18.70;66.80
52787;DHT22;38661;53.152;5.846;2023-10-08T12:19:39;18.80;66.30
52787;DHT22;38661;53.152;5.846;2023-10-08T12:22:15;18.70;64.70
52787;DHT22;38661;53.152;5.846;2023-10-08T12:24:50;18.80;64.90
52787;DHT22;38661;53.152;5.846;2023-10-08T12:27:18;19.10;65.40
52787;DHT22;38661;53.152;5.846;2023-10-08T12:29:44;19.20;65.10
52787;DHT22;38661;53.152;5.846;2023-10-08T12:32:09;19.20;63.30
52787;DHT22;38661;53.152;5.846;2023-10-08T12:34:42;19.50;64.70
52787;DHT22;38661;53.152;5.846;2023-10-08T12:37:14;19.60;62.90
52787;DHT22;38661;53.152;5.846;2023-10-08T12:39:40;19.60;61.30
52787;DHT22;38661;53.152;5.846;2023-10-08T12:42:22;19.60;61.70
52787;DHT22;38661;53.152;5.846;2023-10-08T12:44:49;19.50;62.40
52787;DHT22;38661;53.152;5.846;2023-10-08T12:47:14;19.50;61.90
52787;DHT22;38661;53.152;5.846;2023-10-08T12:49:41;19.60;62.30
52787;DHT22;38661;53.152;5.846;2023-10-08T12:52:06;19.80;62.60
52787;DHT22;38661;53.152;5.846;2023-10-08T12:54:34;19.60;59.50
52787;DHT22;38661;53.152;5.846;2023-10-08T12:57:10;19.70;62.00
52787;DHT22;38661;53.152;5.846;2023-10-08T12:59:36;19.90;62.10
52787;DHT22;38661;53.152;5.846;2023-10-08T13:02:04;20.20;62.20
52787;DHT22;38661;53.152;5.846;2023-10-08T13:04:34;20.40;62.60
52787;DHT22;38661;53.152;5.846;2023-10-08T13:07:01;20.40;62.10
52787;DHT22;38661;53.152;5.846;2023-10-08T13:09:28;20.20;60.90
52787;DHT22;38661;53.152;5.846;2023-10-08T13:11:56;20.10;62.60
52787;DHT22;38661;53.152;5.846;2023-10-08T13:14:25;19.80;62.80
52787;DHT22;38661;53.152;5.846;2023-10-08T13:16:51;19.60;63.70
52787;DHT22;38661;53.152;5.846;2023-10-08T13:19:19;19.50;64.00
52787;DHT22;38661;53.152;5.846;2023-10-08T13:21:46;19.30;64.20
52787;DHT22;38661;53.152;5.846;2023-10-08T13:24:13;19.30;64.70
52787;DHT22;38661;53.152;5.846;2023-10-08T13:26:38;19.20;65.30
52787;DHT22;38661;53.152;5.846;2023-10-08T13:29:05;19.00;65.30
52787;DHT22;38661;53.152;5.846;2023-10-08T13:31:34;19.00;66.00
52787;DHT22;38661;53.152;5.846;2023-10-08T13:34:01;19.00;66.70
52787;DHT22;38661;53.152;5.846;2023-10-08T13:36:29;18.90;66.80
52787;DHT22;38661;53.152;5.846;2023-10-08T13:38:55;18.90;67.10
52787;DHT22;38661;53.152;5.846;2023-10-08T13:41:21;18.70;65.70
52787;DHT22;38661;53.152;5.846;2023-10-08T13:43:48;18.60;66.10
52787;DHT22;38661;53.152;5.846;2023-10-08T13:46:18;18.50;65.70
52787;DHT22;38661;53.152;5.846;2023-10-08T13:48:46;18.50;66.10
52787;DHT22;38661;53.152;5.846;2023-10-08T13:51:17;18.40;66.70
52787;DHT22;38661;53.152;5.846;2023-10-08T13:53:57;18.20;67.10
52787;DHT22;38661;53.152;5.846;2023-10-08T13:56:27;18.20;68.10
52787;DHT22;38661;53.152;5.846;2023-10-08T13:58:56;18.20;68.00
52787;DHT22;38661;53.152;5.846;2023-10-08T14:01:33;18.20;68.10
52787;DHT22;38661;53.152;5.846;2023-10-08T14:04:00;18.00;67.90
52787;DHT22;38661;53.152;5.846;2023-10-08T14:06:35;18.10;68.20
52787;DHT22;38661;53.152;5.846;2023-10-08T14:09:01;18.00;68.10
52787;DHT22;38661;53.152;5.846;2023-10-08T14:11:32;18.00;68.40
52787;DHT22;38661;53.152;5.846;2023-10-08T14:13:59;18.00;68.30
52787;DHT22;38661;53.152;5.846;2023-10-08T14:16:42;18.00;68.40
52787;DHT22;38661;53.152;5.846;2023-10-08T14:19:09;17.90;68.40
52787;DHT22;38661;53.152;5.846;2023-10-08T14:21:41;17.80;69.00
52787;DHT22;38661;53.152;5.846;2023-10-08T14:24:20;17.80;69.10
52787;DHT22;38661;53.152;5.846;2023-10-08T14:26:47;17.70;69.40
52787;DHT22;38661;53.152;5.846;2023-10-08T14:29:24;17.70;69.70
52787;DHT22;38661;53.152;5.846;2023-10-08T14:31:52;17.60;70.10
52787;DHT22;38661;53.152;5.846;2023-10-08T14:34:21;17.50;70.20
52787;DHT22;38661;53.152;5.846;2023-10-08T14:37:07;17.50;70.20
52787;DHT22;38661;53.152;5.846;2023-10-08T14:39:51;17.30;70.90
52787;DHT22;38661;53.152;5.846;2023-10-08T14:42:35;17.30;71.40
52787;DHT22;38661;53.152;5.846;2023-10-08T14:45:19;17.30;71.80
52787;DHT22;38661;53.152;5.846;2023-10-08T14:47:45;17.30;71.90
52787;DHT22;38661;53.152;5.846;2023-10-08T14:50:11;17.30;72.20
52787;DHT22;38661;53.152;5.846;2023-10-08T14:52:45;17.30;71.80
52787;DHT22;38661;53.152;5.846;2023-10-08T14:55:12;17.40;72.30
52787;DHT22;38661;53.152;5.846;2023-10-08T14:57:41;17.40;72.70
52787;DHT22;38661;53.152;5.846;2023-10-08T15:00:08;17.40;72.80
52787;DHT22;38661;53.152;5.846;2023-10-08T15:02:37;17.30;72.00
52787;DHT22;38661;53.152;5.846;2023-10-08T15:05:04;17.40;72.50
52787;DHT22;38661;53.152;5.846;2023-10-08T15:07:31;17.50;72.40
52787;DHT22;38661;53.152;5.846;2023-10-08T15:09:58;17.50;72.00
52787;DHT22;38661;53.152;5.846;2023-10-08T15:12:27;17.50;71.70
52787;DHT22;38661;53.152;5.846;2023-10-08T15:14:53;17.40;71.80
52787;DHT22;38661;53.152;5.846;2023-10-08T15:17:19;17.30;71.50
52787;DHT22;38661;53.152;5.846;2023-10-08T15:19:45;17.20;71.40
52787;DHT22;38661;53.152;5.846;2023-10-08T15:22:13;17.20;71.90
52787;DHT22;38661;53.152;5.846;2023-10-08T15:24:39;17.10;72.20
52787;DHT22;38661;53.152;5.846;2023-10-08T15:27:06;17.00;71.90
52787;DHT22;38661;53.152;5.846;2023-10-08T15:29:31;16.90;72.70
52787;DHT22;38661;53.152;5.846;2023-10-08T15:31:58;16.80;72.80
52787;DHT22;38661;53.152;5.846;2023-10-08T15:34:24;16.70;73.10
52787;DHT22;38661;53.152;5.846;2023-10-08T15:36:55;16.70;73.70
52787;DHT22;38661;53.152;5.846;2023-10-08T15:39:21;16.60;74.00
52787;DHT22;38661;53.152;5.846;2023-10-08T15:41:53;16.50;74.40
52787;DHT22;38661;53.152;5.846;2023-10-08T15:44:19;16.50;74.50
52787;DHT22;38661;53.152;5.846;2023-10-08T15:46:48;16.50;74.70
52787;DHT22;38661;53.152;5.846;2023-10-08T15:49:15;16.50;75.00
52787;DHT22;38661;53.152;5.846;2023-10-08T15:51:41;16.40;75.50
52787;DHT22;38661;53.152;5.846;2023-10-08T15:54:06;16.50;75.40
52787;DHT22;38661;53.152;5.846;2023-10-08T15:56:33;16.50;75.60
52787;DHT22;38661;53.152;5.846;2023-10-08T15:59:00;16.50;75.90
52787;DHT22;38661;53.152;5.846;2023-10-08T16:01:25;16.50;76.00
52787;DHT22;38661;53.152;5.846;2023-10-08T16:03:51;16.50;76.30
52787;DHT22;38661;53.152;5.846;2023-10-08T16:06:18;16.40;76.80
52787;DHT22;38661;53.152;5.846;2023-10-08T16:08:47;16.40;76.80
52787;DHT22;38661;53.152;5.846;2023-10-08T16:11:14;16.40;76.90
52787;DHT22;38661;53.152;5.846;2023-10-08T16:13:40;16.30;77.10
52787;DHT22;38661;53.152;5.846;2023-10-08T16:16:09;16.20;77.50
52787;DHT22;38661;53.152;5.846;2023-10-08T16:18:35;16.20;77.70
52787;DHT22;38661;53.152;5.846;2023-10-08T16:21:01;16.10;78.00
52787;DHT22;38661;53.152;5.846;2023-10-08T16:23:27;16.10;78.30
52787;DHT22;38661;53.152;5.846;2023-10-08T16:25:55;16.10;78.70